sensor_id;sensor_type;location;lat;lon;timestamp;P1;durP1;ratioP1;P2;durP2;ratioP2
3343;SDS011;1685;53.104;8.228;2022-11-13T00:02:08;25.87;;;18.90;;
3343;SDS011;1685;53.104;8.228;2022-11-13T00:04:35;22.77;;;17.70;;
3343;SDS011;1685;53.104;8.228;2022-11-13T00:07:02;26.10;;;19.23;;
3343;SDS011;1685;53.104;8.228;2022-11-13T00:09:29;24.40;;;18.80;;
3343;SDS011;1685;53.104;8.228;2022-11-13T00:11:56;25.57;;;17.73;;
3343;SDS011;1685;53.104;8.228;2022-11-13T00:14:24;24.47;;;17.67;;
3343;SDS011;1685;53.104;8.228;2022-11-13T00:16:52;22.03;;;16.77;;
3343;SDS011;1685;53.104;8.228;2022-11-13T00:19:19;25.00;;;17.87;;
3343;SDS011;1685;53.104;8.228;2022-11-13T00:21:46;24.00;;;17.73;;
3343;SDS011;1685;53.104;8.228;2022-11-13T00:24:13;25.60;;;16.93;;
3343;SDS011;1685;53.104;8.228;2022-11-13T00:26:40;23.70;;;16.60;;
3343;SDS011;1685;53.104;8.228;2022-11-13T00:29:07;26.17;;;17.93;;
3343;SDS011;1685;53.104;8.228;2022-11-13T00:31:34;23.13;;;17.70;;
3343;SDS011;1685;53.104;8.228;2022-11-13T00:34:03;21.53;;;16.47;;
3343;SDS011;1685;53.104;8.228;2022-11-13T00:36:29;20.40;;;16.17;;
3343;SDS011;1685;53.104;8.228;2022-11-13T00:38:56;20.77;;;17.43;;
3343;SDS011;1685;53.104;8.228;2022-11-13T00:41:23;21.47;;;17.17;;
3343;SDS011;1685;53.104;8.228;2022-11-13T00:43:50;22.60;;;16.53;;
3343;SDS011;1685;53.104;8.228;2022-11-13T00:46:18;23.30;;;17.33;;
3343;SDS011;1685;53.104;8.228;2022-11-13T00:48:45;20.10;;;16.57;;
3343;SDS011;1685;53.104;8.228;2022-11-13T00:51:13;21.30;;;15.87;;
3343;SDS011;1685;53.104;8.228;2022-11-13T00:53:40;20.33;;;16.17;;
3343;SDS011;1685;53.104;8.228;2022-11-13T00:56:07;19.77;;;15.70;;
3343;SDS011;1685;53.104;8.228;2022-11-13T00:58:34;26.70;;;17.57;;
3343;SDS011;1685;53.104;8.228;2022-11-13T01:01:03;21.73;;;16.07;;
3343;SDS011;1685;53.104;8.228;2022-11-13T01:03:31;21.70;;;15.83;;
3343;SDS011;1685;53.104;8.228;2022-11-13T01:05:58;20.10;;;16.40;;
3343;SDS011;1685;53.104;8.228;2022-11-13T01:08:26;21.40;;;17.30;;
3343;SDS011;1685;53.104;8.228;2022-11-13T01:10:53;26.00;;;17.63;;
3343;SDS011;1685;53.104;8.228;2022-11-13T01:13:20;24.53;;;16.30;;
3343;SDS011;1685;53.104;8.228;2022-11-13T01:15:47;22.03;;;16.53;;
3343;SDS011;1685;53.104;8.228;2022-11-13T01:18:14;21.10;;;15.47;;
3343;SDS011;1685;53.104;8.228;2022-11-13T01:20:41;22.77;;;15.67;;
3343;SDS011;1685;53.104;8.228;2022-11-13T01:23:08;21.10;;;16.70;;
3343;SDS011;1685;53.104;8.228;2022-11-13T01:25:37;27.47;;;17.97;;
3343;SDS011;1685;53.104;8.228;2022-11-13T01:28:03;25.10;;;16.60;;
3343;SDS011;1685;53.104;8.228;2022-11-13T01:30:30;26.00;;;16.33;;
3343;SDS011;1685;53.104;8.228;2022-11-13T01:32:57;17.70;;;15.00;;
3343;SDS011;1685;53.104;8.228;2022-11-13T01:35:24;21.07;;;15.60;;
3343;SDS011;1685;53.104;8.228;2022-11-13T01:37:51;20.83;;;15.33;;
3343;SDS011;1685;53.104;8.228;2022-11-13T01:40:18;19.00;;;16.10;;
3343;SDS011;1685;53.104;8.228;2022-11-13T01:42:46;20.30;;;15.90;;
3343;SDS011;1685;53.104;8.228;2022-11-13T01:48:29;16.63;;;14.20;;
3343;SDS011;1685;53.104;8.228;2022-11-13T01:50:59;22.47;;;15.10;;
3343;SDS011;1685;53.104;8.228;2022-11-13T01:53:27;20.67;;;15.53;;
3343;SDS011;1685;53.104;8.228;2022-11-13T01:55:54;20.27;;;15.60;;
3343;SDS011;1685;53.104;8.228;2022-11-13T01:58:23;17.77;;;14.63;;
3343;SDS011;1685;53.104;8.228;2022-11-13T02:00:50;17.90;;;13.80;;
3343;SDS011;1685;53.104;8.228;2022-11-13T02:03:17;19.00;;;14.73;;
3343;SDS011;1685;53.104;8.228;2022-11-13T02:05:44;22.20;;;16.17;;
3343;SDS011;1685;53.104;8.228;2022-11-13T02:08:11;19.10;;;15.03;;
3343;SDS011;1685;53.104;8.228;2022-11-13T02:10:38;19.23;;;14.43;;
3343;SDS011;1685;53.104;8.228;2022-11-13T02:13:05;17.90;;;14.67;;
3343;SDS011;1685;53.104;8.228;2022-11-13T02:15:34;18.77;;;13.70;;
3343;SDS011;1685;53.104;8.228;2022-11-13T02:18:01;18.60;;;14.83;;
3343;SDS011;1685;53.104;8.228;2022-11-13T02:20:30;16.93;;;14.33;;
3343;SDS011;1685;53.104;8.228;2022-11-13T02:23:06;19.40;;;14.97;;
3343;SDS011;1685;53.104;8.228;2022-11-13T02:25:40;18.10;;;13.30;;
3343;SDS011;1685;53.104;8.228;2022-11-13T02:28:09;15.43;;;12.80;;
3343;SDS011;1685;53.104;8.228;2022-11-13T02:30:37;18.90;;;13.00;;
3343;SDS011;1685;53.104;8.228;2022-11-13T02:33:16;20.63;;;14.43;;
3343;SDS011;1685;53.104;8.228;2022-11-13T02:35:47;17.23;;;13.57;;
3343;SDS011;1685;53.104;8.228;2022-11-13T02:38:14;17.80;;;13.00;;
3343;SDS011;1685;53.104;8.228;2022-11-13T02:40:42;18.10;;;13.80;;
3343;SDS011;1685;53.104;8.228;2022-11-13T02:43:08;16.47;;;13.63;;
3343;SDS011;1685;53.104;8.228;2022-11-13T02:45:36;17.90;;;12.30;;
3343;SDS011;1685;53.104;8.228;2022-11-13T02:48:03;20.87;;;14.63;;
3343;SDS011;1685;53.104;8.228;2022-11-13T02:50:31;17.77;;;12.77;;
3343;SDS011;1685;53.104;8.228;2022-11-13T02:52:58;14.47;;;12.57;;
3343;SDS011;1685;53.104;8.228;2022-11-13T02:55:25;17.40;;;13.20;;
3343;SDS011;1685;53.104;8.228;2022-11-13T02:57:53;18.00;;;14.27;;
3343;SDS011;1685;53.104;8.228;2022-11-13T03:00:20;18.07;;;14.70;;
3343;SDS011;1685;53.104;8.228;2022-11-13T03:02:47;19.37;;;13.80;;
3343;SDS011;1685;53.104;8.228;2022-11-13T03:05:14;16.60;;;13.20;;
3343;SDS011;1685;53.104;8.228;2022-11-13T03:07:41;17.07;;;13.63;;
3343;SDS011;1685;53.104;8.228;2022-11-13T03:10:09;22.80;;;12.50;;
3343;SDS011;1685;53.104;8.228;2022-11-13T03:12:36;15.73;;;12.90;;
3343;SDS011;1685;53.104;8.228;2022-11-13T03:15:06;18.70;;;14.10;;
3343;SDS011;1685;53.104;8.228;2022-11-13T03:17:34;20.90;;;13.70;;
3343;SDS011;1685;53.104;8.228;2022-11-13T03:20:01;14.97;;;12.23;;
3343;SDS011;1685;53.104;8.228;2022-11-13T03:22:28;16.60;;;12.87;;
3343;SDS011;1685;53.104;8.228;2022-11-13T03:24:55;15.07;;;12.37;;
3343;SDS011;1685;53.104;8.228;2022-11-13T03:27:22;12.67;;;11.07;;
3343;SDS011;1685;53.104;8.228;2022-11-13T03:29:49;14.63;;;11.37;;
3343;SDS011;1685;53.104;8.228;2022-11-13T03:32:18;16.43;;;12.83;;
3343;SDS011;1685;53.104;8.228;2022-11-13T03:34:44;13.80;;;11.50;;
3343;SDS011;1685;53.104;8.228;2022-11-13T03:37:11;15.93;;;12.60;;
3343;SDS011;1685;53.104;8.228;2022-11-13T03:39:38;12.27;;;10.90;;
3343;SDS011;1685;53.104;8.228;2022-11-13T03:42:05;20.63;;;12.10;;
3343;SDS011;1685;53.104;8.228;2022-11-13T03:44:32;14.47;;;12.80;;
3343;SDS011;1685;53.104;8.228;2022-11-13T03:46:59;15.43;;;12.80;;
3343;SDS011;1685;53.104;8.228;2022-11-13T03:49:28;15.67;;;11.33;;
3343;SDS011;1685;53.104;8.228;2022-11-13T03:51:55;20.20;;;12.10;;
3343;SDS011;1685;53.104;8.228;2022-11-13T03:54:22;15.00;;;11.77;;
3343;SDS011;1685;53.104;8.228;2022-11-13T03:56:49;20.10;;;12.07;;
3343;SDS011;1685;53.104;8.228;2022-11-13T03:59:16;15.17;;;11.47;;
3343;SDS011;1685;53.104;8.228;2022-11-13T04:01:43;15.90;;;10.27;;
3343;SDS011;1685;53.104;8.228;2022-11-13T04:04:10;12.37;;;11.07;;
3343;SDS011;1685;53.104;8.228;2022-11-13T04:06:38;18.13;;;11.20;;
3343;SDS011;1685;53.104;8.228;2022-11-13T04:09:05;15.20;;;10.90;;
3343;SDS011;1685;53.104;8.228;2022-11-13T04:11:32;12.40;;;10.43;;
3343;SDS011;1685;53.104;8.228;2022-11-13T04:13:59;15.33;;;10.73;;
3343;SDS011;1685;53.104;8.228;2022-11-13T04:16:26;12.93;;;10.70;;
3343;SDS011;1685;53.104;8.228;2022-11-13T04:18:53;15.50;;;11.17;;
3343;SDS011;1685;53.104;8.228;2022-11-13T04:21:20;16.80;;;10.57;;
3343;SDS011;1685;53.104;8.228;2022-11-13T04:23:49;16.10;;;11.10;;
3343;SDS011;1685;53.104;8.228;2022-11-13T04:26:15;14.10;;;10.90;;
3343;SDS011;1685;53.104;8.228;2022-11-13T04:28:42;20.27;;;11.37;;
3343;SDS011;1685;53.104;8.228;2022-11-13T04:31:09;11.80;;;10.60;;
3343;SDS011;1685;53.104;8.228;2022-11-13T04:33:36;14.17;;;11.20;;
3343;SDS011;1685;53.104;8.228;2022-11-13T04:36:04;11.63;;;10.30;;
3343;SDS011;1685;53.104;8.228;2022-11-13T04:38:31;15.87;;;10.50;;
3343;SDS011;1685;53.104;8.228;2022-11-13T04:40:59;12.07;;;10.60;;
3343;SDS011;1685;53.104;8.228;2022-11-13T04:43:43;15.10;;;10.17;;
3343;SDS011;1685;53.104;8.228;2022-11-13T04:46:10;14.20;;;10.33;;
3343;SDS011;1685;53.104;8.228;2022-11-13T04:48:37;12.90;;;11.23;;
3343;SDS011;1685;53.104;8.228;2022-11-13T04:51:04;17.07;;;11.33;;
3343;SDS011;1685;53.104;8.228;2022-11-13T04:53:31;15.37;;;10.97;;
3343;SDS011;1685;53.104;8.228;2022-11-13T04:56:00;12.03;;;9.30;;
3343;SDS011;1685;53.104;8.228;2022-11-13T04:58:26;14.20;;;11.50;;
3343;SDS011;1685;53.104;8.228;2022-11-13T05:00:53;13.63;;;9.90;;
3343;SDS011;1685;53.104;8.228;2022-11-13T05:03:20;12.67;;;10.27;;
3343;SDS011;1685;53.104;8.228;2022-11-13T05:05:47;15.50;;;11.80;;
3343;SDS011;1685;53.104;8.228;2022-11-13T05:08:14;15.73;;;12.47;;
3343;SDS011;1685;53.104;8.228;2022-11-13T05:10:42;13.53;;;10.43;;
3343;SDS011;1685;53.104;8.228;2022-11-13T05:13:10;28.57;;;12.13;;
3343;SDS011;1685;53.104;8.228;2022-11-13T05:15:37;12.17;;;10.17;;
3343;SDS011;1685;53.104;8.228;2022-11-13T05:18:04;11.13;;;9.53;;
3343;SDS011;1685;53.104;8.228;2022-11-13T05:20:31;15.43;;;10.57;;
3343;SDS011;1685;53.104;8.228;2022-11-13T05:22:58;13.83;;;11.00;;
3343;SDS011;1685;53.104;8.228;2022-11-13T05:25:25;31.33;;;16.13;;
3343;SDS011;1685;53.104;8.228;2022-11-13T05:27:52;17.30;;;13.07;;
3343;SDS011;1685;53.104;8.228;2022-11-13T05:30:20;18.03;;;11.93;;
3343;SDS011;1685;53.104;8.228;2022-11-13T05:32:47;14.60;;;11.77;;
3343;SDS011;1685;53.104;8.228;2022-11-13T05:35:14;15.93;;;11.70;;
3343;SDS011;1685;53.104;8.228;2022-11-13T05:37:41;12.73;;;10.73;;
3343;SDS011;1685;53.104;8.228;2022-11-13T05:40:09;18.67;;;12.10;;
3343;SDS011;1685;53.104;8.228;2022-11-13T05:42:37;14.63;;;12.80;;
3343;SDS011;1685;53.104;8.228;2022-11-13T05:45:04;18.27;;;11.80;;
3343;SDS011;1685;53.104;8.228;2022-11-13T05:47:32;15.27;;;12.17;;
3343;SDS011;1685;53.104;8.228;2022-11-13T05:49:59;15.80;;;11.33;;
3343;SDS011;1685;53.104;8.228;2022-11-13T05:52:26;19.23;;;11.80;;
3343;SDS011;1685;53.104;8.228;2022-11-13T05:54:53;16.00;;;11.13;;
3343;SDS011;1685;53.104;8.228;2022-11-13T05:57:20;14.00;;;11.33;;
3343;SDS011;1685;53.104;8.228;2022-11-13T05:59:47;13.30;;;10.83;;
3343;SDS011;1685;53.104;8.228;2022-11-13T06:02:14;14.53;;;12.00;;
3343;SDS011;1685;53.104;8.228;2022-11-13T06:04:43;13.17;;;11.30;;
3343;SDS011;1685;53.104;8.228;2022-11-13T06:07:09;12.93;;;10.53;;
3343;SDS011;1685;53.104;8.228;2022-11-13T06:09:36;13.93;;;11.40;;
3343;SDS011;1685;53.104;8.228;2022-11-13T06:12:04;13.90;;;12.00;;
3343;SDS011;1685;53.104;8.228;2022-11-13T06:14:31;15.20;;;11.10;;
3343;SDS011;1685;53.104;8.228;2022-11-13T06:16:58;12.57;;;11.23;;
3343;SDS011;1685;53.104;8.228;2022-11-13T06:19:25;12.00;;;10.73;;
3343;SDS011;1685;53.104;8.228;2022-11-13T06:21:53;11.80;;;9.90;;
3343;SDS011;1685;53.104;8.228;2022-11-13T06:24:20;16.67;;;12.07;;
3343;SDS011;1685;53.104;8.228;2022-11-13T06:26:47;13.90;;;11.13;;
3343;SDS011;1685;53.104;8.228;2022-11-13T06:29:14;15.63;;;10.17;;
3343;SDS011;1685;53.104;8.228;2022-11-13T06:31:41;14.10;;;10.70;;
3343;SDS011;1685;53.104;8.228;2022-11-13T06:34:08;13.73;;;9.83;;
3343;SDS011;1685;53.104;8.228;2022-11-13T06:36:35;25.57;;;15.60;;
3343;SDS011;1685;53.104;8.228;2022-11-13T06:39:05;42.90;;;23.67;;
3343;SDS011;1685;53.104;8.228;2022-11-13T06:41:33;27.13;;;18.53;;
3343;SDS011;1685;53.104;8.228;2022-11-13T06:44:00;22.97;;;15.73;;
3343;SDS011;1685;53.104;8.228;2022-11-13T06:46:27;21.57;;;15.23;;
3343;SDS011;1685;53.104;8.228;2022-11-13T06:48:54;20.07;;;15.03;;
3343;SDS011;1685;53.104;8.228;2022-11-13T06:51:22;22.33;;;14.40;;
3343;SDS011;1685;53.104;8.228;2022-11-13T06:53:50;16.70;;;12.70;;
3343;SDS011;1685;53.104;8.228;2022-11-13T06:56:19;27.70;;;12.57;;
3343;SDS011;1685;53.104;8.228;2022-11-13T06:58:46;13.40;;;11.63;;
3343;SDS011;1685;53.104;8.228;2022-11-13T07:01:14;13.50;;;10.83;;
3343;SDS011;1685;53.104;8.228;2022-11-13T07:03:42;12.90;;;10.13;;
3343;SDS011;1685;53.104;8.228;2022-11-13T07:06:11;12.77;;;10.20;;
3343;SDS011;1685;53.104;8.228;2022-11-13T07:08:39;12.17;;;10.20;;
3343;SDS011;1685;53.104;8.228;2022-11-13T07:11:07;10.67;;;9.50;;
3343;SDS011;1685;53.104;8.228;2022-11-13T07:13:37;15.83;;;10.10;;
3343;SDS011;1685;53.104;8.228;2022-11-13T07:16:05;10.80;;;9.70;;
3343;SDS011;1685;53.104;8.228;2022-11-13T07:18:33;12.80;;;10.77;;
3343;SDS011;1685;53.104;8.228;2022-11-13T07:21:02;18.83;;;12.70;;
3343;SDS011;1685;53.104;8.228;2022-11-13T07:23:29;12.60;;;10.70;;
3343;SDS011;1685;53.104;8.228;2022-11-13T07:25:56;15.70;;;11.20;;
3343;SDS011;1685;53.104;8.228;2022-11-13T07:28:23;13.63;;;10.13;;
3343;SDS011;1685;53.104;8.228;2022-11-13T07:30:52;14.37;;;11.10;;
3343;SDS011;1685;53.104;8.228;2022-11-13T07:33:19;13.60;;;10.07;;
3343;SDS011;1685;53.104;8.228;2022-11-13T07:35:46;15.10;;;10.47;;
3343;SDS011;1685;53.104;8.228;2022-11-13T07:38:13;15.50;;;11.50;;
3343;SDS011;1685;53.104;8.228;2022-11-13T07:40:40;14.37;;;10.90;;
3343;SDS011;1685;53.104;8.228;2022-11-13T07:43:07;18.13;;;11.60;;
3343;SDS011;1685;53.104;8.228;2022-11-13T07:45:34;16.13;;;12.23;;
3343;SDS011;1685;53.104;8.228;2022-11-13T07:48:03;14.43;;;12.53;;
3343;SDS011;1685;53.104;8.228;2022-11-13T07:50:31;15.33;;;12.37;;
3343;SDS011;1685;53.104;8.228;2022-11-13T07:53:00;19.70;;;13.53;;
3343;SDS011;1685;53.104;8.228;2022-11-13T07:55:28;18.67;;;14.90;;
3343;SDS011;1685;53.104;8.228;2022-11-13T07:57:55;25.70;;;14.70;;
3343;SDS011;1685;53.104;8.228;2022-11-13T08:00:23;32.67;;;21.37;;
3343;SDS011;1685;53.104;8.228;2022-11-13T08:02:51;35.00;;;23.53;;
3343;SDS011;1685;53.104;8.228;2022-11-13T08:05:19;28.87;;;22.00;;
3343;SDS011;1685;53.104;8.228;2022-11-13T08:07:46;33.97;;;24.60;;
3343;SDS011;1685;53.104;8.228;2022-11-13T08:10:14;29.40;;;22.17;;
3343;SDS011;1685;53.104;8.228;2022-11-13T08:12:41;31.80;;;22.83;;
3343;SDS011;1685;53.104;8.228;2022-11-13T08:15:09;38.80;;;25.80;;
3343;SDS011;1685;53.104;8.228;2022-11-13T08:17:36;33.40;;;22.60;;
3343;SDS011;1685;53.104;8.228;2022-11-13T08:20:03;33.37;;;21.13;;
3343;SDS011;1685;53.104;8.228;2022-11-13T08:22:32;28.27;;;19.40;;
3343;SDS011;1685;53.104;8.228;2022-11-13T08:24:59;35.90;;;19.83;;
3343;SDS011;1685;53.104;8.228;2022-11-13T08:27:26;26.37;;;17.80;;
3343;SDS011;1685;53.104;8.228;2022-11-13T08:29:53;32.50;;;20.97;;
3343;SDS011;1685;53.104;8.228;2022-11-13T08:32:20;28.50;;;19.53;;
3343;SDS011;1685;53.104;8.228;2022-11-13T08:34:47;28.30;;;19.37;;
3343;SDS011;1685;53.104;8.228;2022-11-13T08:37:14;29.77;;;20.90;;
3343;SDS011;1685;53.104;8.228;2022-11-13T08:39:42;33.17;;;20.73;;
3343;SDS011;1685;53.104;8.228;2022-11-13T08:42:09;29.20;;;19.87;;
3343;SDS011;1685;53.104;8.228;2022-11-13T08:44:36;32.80;;;21.40;;
3343;SDS011;1685;53.104;8.228;2022-11-13T08:47:03;35.33;;;22.53;;
3343;SDS011;1685;53.104;8.228;2022-11-13T08:49:30;40.40;;;24.03;;
3343;SDS011;1685;53.104;8.228;2022-11-13T08:51:57;44.30;;;24.20;;
3343;SDS011;1685;53.104;8.228;2022-11-13T08:54:24;42.73;;;23.27;;
3343;SDS011;1685;53.104;8.228;2022-11-13T08:56:53;41.80;;;25.17;;
3343;SDS011;1685;53.104;8.228;2022-11-13T08:59:19;35.40;;;22.77;;
3343;SDS011;1685;53.104;8.228;2022-11-13T09:01:47;30.33;;;19.70;;
3343;SDS011;1685;53.104;8.228;2022-11-13T09:04:14;28.27;;;21.10;;
3343;SDS011;1685;53.104;8.228;2022-11-13T09:06:42;32.60;;;19.50;;
3343;SDS011;1685;53.104;8.228;2022-11-13T09:09:09;31.07;;;20.27;;
3343;SDS011;1685;53.104;8.228;2022-11-13T09:11:36;22.73;;;17.70;;
3343;SDS011;1685;53.104;8.228;2022-11-13T09:14:04;25.20;;;18.30;;
3343;SDS011;1685;53.104;8.228;2022-11-13T09:16:31;27.17;;;18.73;;
3343;SDS011;1685;53.104;8.228;2022-11-13T09:18:58;23.97;;;17.37;;
3343;SDS011;1685;53.104;8.228;2022-11-13T09:21:25;25.20;;;17.83;;
3343;SDS011;1685;53.104;8.228;2022-11-13T09:23:52;24.70;;;17.53;;
3343;SDS011;1685;53.104;8.228;2022-11-13T09:26:19;24.53;;;17.67;;
3343;SDS011;1685;53.104;8.228;2022-11-13T09:28:46;22.77;;;17.17;;
3343;SDS011;1685;53.104;8.228;2022-11-13T09:31:14;24.33;;;16.97;;
3343;SDS011;1685;53.104;8.228;2022-11-13T09:33:41;22.40;;;17.73;;
3343;SDS011;1685;53.104;8.228;2022-11-13T09:36:09;25.47;;;18.73;;
3343;SDS011;1685;53.104;8.228;2022-11-13T09:38:36;22.33;;;17.57;;
3343;SDS011;1685;53.104;8.228;2022-11-13T09:41:04;23.13;;;17.33;;
3343;SDS011;1685;53.104;8.228;2022-11-13T09:43:35;23.30;;;18.40;;
3343;SDS011;1685;53.104;8.228;2022-11-13T09:46:07;25.03;;;18.83;;
3343;SDS011;1685;53.104;8.228;2022-11-13T09:48:45;22.97;;;17.13;;
3343;SDS011;1685;53.104;8.228;2022-11-13T09:51:17;25.93;;;16.00;;
3343;SDS011;1685;53.104;8.228;2022-11-13T09:53:46;20.17;;;15.50;;
3343;SDS011;1685;53.104;8.228;2022-11-13T09:56:16;25.37;;;17.50;;
3343;SDS011;1685;53.104;8.228;2022-11-13T09:58:51;20.63;;;16.47;;
3343;SDS011;1685;53.104;8.228;2022-11-13T10:01:27;20.90;;;16.00;;
3343;SDS011;1685;53.104;8.228;2022-11-13T10:04:01;20.50;;;16.40;;
3343;SDS011;1685;53.104;8.228;2022-11-13T10:06:35;22.07;;;15.67;;
3343;SDS011;1685;53.104;8.228;2022-11-13T10:09:14;23.60;;;15.13;;
3343;SDS011;1685;53.104;8.228;2022-11-13T10:11:49;19.70;;;15.10;;
3343;SDS011;1685;53.104;8.228;2022-11-13T10:14:21;19.90;;;14.83;;
3343;SDS011;1685;53.104;8.228;2022-11-13T10:16:53;17.20;;;15.17;;
3343;SDS011;1685;53.104;8.228;2022-11-13T10:19:26;25.63;;;15.67;;
3343;SDS011;1685;53.104;8.228;2022-11-13T10:22:01;19.63;;;14.10;;
3343;SDS011;1685;53.104;8.228;2022-11-13T10:24:33;17.83;;;12.30;;
3343;SDS011;1685;53.104;8.228;2022-11-13T10:27:06;13.93;;;10.93;;
3343;SDS011;1685;53.104;8.228;2022-11-13T10:29:35;15.83;;;11.80;;
3343;SDS011;1685;53.104;8.228;2022-11-13T10:32:13;17.80;;;13.00;;
3343;SDS011;1685;53.104;8.228;2022-11-13T10:34:43;16.03;;;11.90;;
3343;SDS011;1685;53.104;8.228;2022-11-13T10:37:24;23.00;;;10.53;;
3343;SDS011;1685;53.104;8.228;2022-11-13T10:39:56;11.00;;;9.90;;
3343;SDS011;1685;53.104;8.228;2022-11-13T10:42:26;18.50;;;10.60;;
3343;SDS011;1685;53.104;8.228;2022-11-13T10:44:54;14.80;;;10.80;;
3343;SDS011;1685;53.104;8.228;2022-11-13T10:47:23;13.53;;;10.40;;
3343;SDS011;1685;53.104;8.228;2022-11-13T10:49:54;15.47;;;12.20;;
3343;SDS011;1685;53.104;8.228;2022-11-13T10:52:22;15.10;;;10.53;;
3343;SDS011;1685;53.104;8.228;2022-11-13T10:54:50;13.53;;;11.83;;
3343;SDS011;1685;53.104;8.228;2022-11-13T10:57:37;14.93;;;10.60;;
3343;SDS011;1685;53.104;8.228;2022-11-13T11:00:17;16.83;;;11.37;;
3343;SDS011;1685;53.104;8.228;2022-11-13T11:02:47;13.47;;;11.10;;
3343;SDS011;1685;53.104;8.228;2022-11-13T11:05:16;12.97;;;11.27;;
3343;SDS011;1685;53.104;8.228;2022-11-13T11:07:44;12.87;;;10.70;;
3343;SDS011;1685;53.104;8.228;2022-11-13T11:10:18;14.30;;;11.57;;
3343;SDS011;1685;53.104;8.228;2022-11-13T11:12:51;20.53;;;11.87;;
3343;SDS011;1685;53.104;8.228;2022-11-13T11:15:19;14.03;;;11.77;;
3343;SDS011;1685;53.104;8.228;2022-11-13T11:17:50;12.23;;;10.87;;
3343;SDS011;1685;53.104;8.228;2022-11-13T11:20:22;12.13;;;10.83;;
3343;SDS011;1685;53.104;8.228;2022-11-13T11:22:54;19.70;;;10.83;;
3343;SDS011;1685;53.104;8.228;2022-11-13T11:25:30;13.20;;;11.00;;
3343;SDS011;1685;53.104;8.228;2022-11-13T11:28:02;12.77;;;11.20;;
3343;SDS011;1685;53.104;8.228;2022-11-13T11:30:34;12.93;;;10.40;;
3343;SDS011;1685;53.104;8.228;2022-11-13T11:33:08;17.03;;;11.90;;
3343;SDS011;1685;53.104;8.228;2022-11-13T11:35:43;14.10;;;10.47;;
3343;SDS011;1685;53.104;8.228;2022-11-13T11:38:12;12.93;;;10.83;;
3343;SDS011;1685;53.104;8.228;2022-11-13T11:40:45;13.97;;;11.07;;
3343;SDS011;1685;53.104;8.228;2022-11-13T11:43:17;12.50;;;10.37;;
3343;SDS011;1685;53.104;8.228;2022-11-13T11:45:48;16.60;;;12.40;;
3343;SDS011;1685;53.104;8.228;2022-11-13T11:48:16;15.30;;;11.47;;
3343;SDS011;1685;53.104;8.228;2022-11-13T11:50:53;15.30;;;12.60;;
3343;SDS011;1685;53.104;8.228;2022-11-13T11:53:30;15.37;;;11.80;;
3343;SDS011;1685;53.104;8.228;2022-11-13T11:56:08;16.07;;;12.37;;
3343;SDS011;1685;53.104;8.228;2022-11-13T11:58:51;17.10;;;12.20;;
3343;SDS011;1685;53.104;8.228;2022-11-13T12:01:32;12.40;;;10.23;;
3343;SDS011;1685;53.104;8.228;2022-11-13T12:04:25;17.00;;;12.87;;
3343;SDS011;1685;53.104;8.228;2022-11-13T12:07:09;15.57;;;11.60;;
3343;SDS011;1685;53.104;8.228;2022-11-13T12:09:46;15.10;;;12.00;;
3343;SDS011;1685;53.104;8.228;2022-11-13T12:12:20;14.00;;;11.60;;
3343;SDS011;1685;53.104;8.228;2022-11-13T12:14:58;19.50;;;13.00;;
3343;SDS011;1685;53.104;8.228;2022-11-13T12:17:37;14.63;;;11.47;;
3343;SDS011;1685;53.104;8.228;2022-11-13T12:20:16;12.77;;;11.47;;
3343;SDS011;1685;53.104;8.228;2022-11-13T12:22:52;16.50;;;12.23;;
3343;SDS011;1685;53.104;8.228;2022-11-13T12:25:26;13.83;;;12.30;;
3343;SDS011;1685;53.104;8.228;2022-11-13T12:28:02;15.37;;;11.70;;
3343;SDS011;1685;53.104;8.228;2022-11-13T12:30:37;14.83;;;13.00;;
3343;SDS011;1685;53.104;8.228;2022-11-13T12:33:14;15.73;;;12.10;;
3343;SDS011;1685;53.104;8.228;2022-11-13T12:35:48;14.70;;;12.40;;
3343;SDS011;1685;53.104;8.228;2022-11-13T12:38:22;15.33;;;12.50;;
3343;SDS011;1685;53.104;8.228;2022-11-13T12:40:58;18.30;;;13.60;;
3343;SDS011;1685;53.104;8.228;2022-11-13T12:43:38;15.73;;;12.70;;
3343;SDS011;1685;53.104;8.228;2022-11-13T12:46:14;14.80;;;12.33;;
3343;SDS011;1685;53.104;8.228;2022-11-13T12:48:43;18.80;;;14.10;;
3343;SDS011;1685;53.104;8.228;2022-11-13T12:51:11;17.80;;;14.03;;
3343;SDS011;1685;53.104;8.228;2022-11-13T12:53:44;13.93;;;11.40;;
3343;SDS011;1685;53.104;8.228;2022-11-13T12:56:14;16.83;;;12.30;;
3343;SDS011;1685;53.104;8.228;2022-11-13T12:58:51;13.67;;;11.20;;
3343;SDS011;1685;53.104;8.228;2022-11-13T13:01:19;13.83;;;12.20;;
3343;SDS011;1685;53.104;8.228;2022-11-13T13:03:51;12.67;;;11.10;;
3343;SDS011;1685;53.104;8.228;2022-11-13T13:06:44;17.00;;;12.33;;
3343;SDS011;1685;53.104;8.228;2022-11-13T13:09:27;14.83;;;11.23;;
3343;SDS011;1685;53.104;8.228;2022-11-13T13:12:04;12.40;;;10.80;;
3343;SDS011;1685;53.104;8.228;2022-11-13T13:14:48;12.20;;;10.13;;
3343;SDS011;1685;53.104;8.228;2022-11-13T13:17:27;13.40;;;10.50;;
3343;SDS011;1685;53.104;8.228;2022-11-13T13:19:58;13.63;;;10.47;;
3343;SDS011;1685;53.104;8.228;2022-11-13T13:22:26;13.73;;;11.23;;
3343;SDS011;1685;53.104;8.228;2022-11-13T13:25:00;14.30;;;10.40;;
3343;SDS011;1685;53.104;8.228;2022-11-13T13:27:29;12.17;;;10.40;;
3343;SDS011;1685;53.104;8.228;2022-11-13T13:30:10;12.33;;;9.20;;
3343;SDS011;1685;53.104;8.228;2022-11-13T13:32:43;11.73;;;8.80;;
3343;SDS011;1685;53.104;8.228;2022-11-13T13:35:20;10.83;;;9.70;;
3343;SDS011;1685;53.104;8.228;2022-11-13T13:37:51;11.70;;;8.63;;
3343;SDS011;1685;53.104;8.228;2022-11-13T13:40:28;11.50;;;9.47;;
3343;SDS011;1685;53.104;8.228;2022-11-13T13:43:05;11.50;;;9.30;;
3343;SDS011;1685;53.104;8.228;2022-11-13T13:45:45;12.67;;;9.27;;
3343;SDS011;1685;53.104;8.228;2022-11-13T13:48:19;16.20;;;8.97;;
3343;SDS011;1685;53.104;8.228;2022-11-13T13:50:49;10.97;;;8.97;;
3343;SDS011;1685;53.104;8.228;2022-11-13T13:53:17;13.53;;;9.00;;
3343;SDS011;1685;53.104;8.228;2022-11-13T13:55:49;12.10;;;8.40;;
3343;SDS011;1685;53.104;8.228;2022-11-13T13:58:18;10.70;;;8.57;;
3343;SDS011;1685;53.104;8.228;2022-11-13T14:00:55;7.87;;;7.07;;
3343;SDS011;1685;53.104;8.228;2022-11-13T14:03:23;9.27;;;7.77;;
3343;SDS011;1685;53.104;8.228;2022-11-13T14:05:53;8.77;;;7.30;;
3343;SDS011;1685;53.104;8.228;2022-11-13T14:08:21;9.33;;;8.07;;
3343;SDS011;1685;53.104;8.228;2022-11-13T14:10:50;8.37;;;7.53;;
3343;SDS011;1685;53.104;8.228;2022-11-13T14:13:24;9.90;;;7.90;;
3343;SDS011;1685;53.104;8.228;2022-11-13T14:16:01;8.20;;;6.77;;
3343;SDS011;1685;53.104;8.228;2022-11-13T14:18:29;9.70;;;7.60;;
3343;SDS011;1685;53.104;8.228;2022-11-13T14:20:57;8.83;;;7.33;;
3343;SDS011;1685;53.104;8.228;2022-11-13T14:23:27;10.87;;;7.50;;
3343;SDS011;1685;53.104;8.228;2022-11-13T14:25:58;12.80;;;8.27;;
3343;SDS011;1685;53.104;8.228;2022-11-13T14:28:26;13.27;;;9.33;;
3343;SDS011;1685;53.104;8.228;2022-11-13T14:30:55;24.50;;;12.50;;
3343;SDS011;1685;53.104;8.228;2022-11-13T14:33:25;20.00;;;11.03;;
3343;SDS011;1685;53.104;8.228;2022-11-13T14:35:56;15.23;;;11.47;;
3343;SDS011;1685;53.104;8.228;2022-11-13T14:38:25;17.13;;;11.83;;
3343;SDS011;1685;53.104;8.228;2022-11-13T14:40:53;18.00;;;12.13;;
3343;SDS011;1685;53.104;8.228;2022-11-13T14:43:23;16.20;;;12.87;;
3343;SDS011;1685;53.104;8.228;2022-11-13T14:45:53;15.80;;;11.90;;
3343;SDS011;1685;53.104;8.228;2022-11-13T14:48:22;16.77;;;13.20;;
3343;SDS011;1685;53.104;8.228;2022-11-13T14:50:51;17.20;;;13.60;;
3343;SDS011;1685;53.104;8.228;2022-11-13T14:53:27;18.00;;;13.57;;
3343;SDS011;1685;53.104;8.228;2022-11-13T14:55:56;19.83;;;13.10;;
3343;SDS011;1685;53.104;8.228;2022-11-13T14:58:27;17.13;;;12.53;;
3343;SDS011;1685;53.104;8.228;2022-11-13T15:00:55;15.20;;;11.10;;
3343;SDS011;1685;53.104;8.228;2022-11-13T15:03:23;14.60;;;11.47;;
3343;SDS011;1685;53.104;8.228;2022-11-13T15:05:50;14.27;;;9.93;;
3343;SDS011;1685;53.104;8.228;2022-11-13T15:08:17;13.77;;;11.43;;